Time;durP1;ratioP1;P1;durP2;ratioP2;P2;SDS_P1;SDS_P2;PMS_P1;PMS_P2;Temp;Humidity;BMP_temperature;BMP_pressure;BME280_temperature;BME280_humidity;BME280_pressure;Samples;Min_cycle;Max_cycle;Signal;HPM_P1;HPM_P2
2021/06/23 00:00:54;;;;;;;8.20;7.40;;;19.10;93.40;;;;;;2113619;28;20023;-67
2021/06/23 00:01:55;;;;;;;8.70;7.63;;;19.10;93.50;;;;;;2114212;27;20534;-67
2021/06/23 00:02:56;;;;;;;9.55;8.43;;;19.10;93.50;;;;;;2114596;28;20043;-67
2021/06/23 00:03:57;;;;;;;9.13;8.00;;;19.10;93.60;;;;;;2114340;28;20032;-67
2021/06/23 00:04:57;;;;;;;8.23;7.35;;;19.10;93.50;;;;;;2113442;28;20806;-68
2021/06/23 00:05:58;;;;;;;8.07;7.20;;;19.10;93.50;;;;;;2098496;28;20067;-67
2021/06/23 00:06:58;;;;;;;7.45;6.72;;;19.10;93.40;;;;;;2113564;28;20032;-67
2021/06/23 00:07:59;;;;;;;7.60;6.88;;;19.10;93.30;;;;;;2113885;28;20035;-67
2021/06/23 00:09:00;;;;;;;9.55;7.50;;;19.10;93.20;;;;;;2113866;28;20031;-68
2021/06/23 00:10:00;;;;;;;9.52;8.10;;;19.10;93.20;;;;;;2113581;28;20122;-68
2021/06/23 00:11:02;;;;;;;9.05;7.65;;;19.10;93.10;;;;;;2113877;28;20139;-68
2021/06/23 00:12:03;;;;;;;7.90;7.10;;;19.10;93.10;;;;;;2122303;27;20070;-68
2021/06/23 00:13:05;;;;;;;8.07;7.20;;;19.10;93.10;;;;;;2113554;28;20031;-68
2021/06/23 00:14:06;;;;;;;10.20;8.05;;;19.10;93.10;;;;;;2113765;27;20023;-67
2021/06/23 00:15:09;;;;;;;14.82;10.10;;;19.10;93.10;;;;;;2122360;27;20061;-67
2021/06/23 00:16:09;;;;;;;10.70;9.48;;;19.10;93.00;;;;;;2113737;28;20024;-67
2021/06/23 00:17:10;;;;;;;10.00;9.00;;;19.10;92.80;;;;;;2113858;28;20032;-67
2021/06/23 00:18:11;;;;;;;11.43;9.13;;;19.10;92.80;;;;;;2122784;27;20046;-68
2021/06/23 00:19:12;;;;;;;10.93;9.30;;;19.10;92.80;;;;;;2122751;27;20371;-68
2021/06/23 00:20:14;;;;;;;14.05;9.43;;;19.10;92.80;;;;;;2122504;27;20023;-68
2021/06/23 00:21:14;;;;;;;9.85;8.55;;;19.10;92.80;;;;;;2122904;27;20031;-68
2021/06/23 00:22:15;;;;;;;10.00;9.00;;;19.10;93.00;;;;;;2122407;27;20023;-68
2021/06/23 00:23:16;;;;;;;9.57;8.57;;;19.10;92.90;;;;;;2113511;28;20024;-68
2021/06/23 00:24:16;;;;;;;10.82;9.23;;;19.10;93.00;;;;;;2113706;28;20036;-68
2021/06/23 00:25:17;;;;;;;8.93;8.02;;;19.10;93.10;;;;;;2122492;27;20481;-67
2021/06/23 00:26:20;;;;;;;12.02;9.40;;;19.10;93.20;;;;;;2113845;28;20030;-69
2021/06/23 00:27:21;;;;;;;10.45;9.05;;;19.00;93.00;;;;;;2114079;27;20055;-69
2021/06/23 00:28:22;;;;;;;10.65;9.15;;;19.00;93.30;;;;;;2122622;27;20142;-69
2021/06/23 00:29:23;;;;;;;11.80;9.73;;;19.10;93.40;;;;;;2122363;27;20046;-69
2021/06/23 00:30:24;;;;;;;12.68;9.98;;;19.10;93.50;;;;;;2122752;27;20019;-69
2021/06/23 00:31:29;;;;;;;12.30;9.50;;;19.10;93.70;;;;;;2122934;27;20015;-67
2021/06/23 00:32:33;;;;;;;10.90;9.57;;;19.10;93.70;;;;;;2122200;27;20030;-69
2021/06/23 00:33:36;;;;;;;9.30;8.30;;;19.00;93.60;;;;;;2122896;27;20019;-67
2021/06/23 00:34:37;;;;;;;8.48;7.57;;;19.10;93.60;;;;;;2122133;27;20030;-67
2021/06/23 00:35:37;;;;;;;8.07;7.28;;;19.10;93.60;;;;;;2117252;27;20419;-68
2021/06/23 00:36:38;;;;;;;8.27;7.10;;;19.10;93.50;;;;;;2114175;28;20026;-68
2021/06/23 00:37:39;;;;;;;9.70;8.10;;;19.10;93.60;;;;;;2113354;28;20045;-67
2021/06/23 00:38:40;;;;;;;9.30;8.20;;;19.10;93.60;;;;;;2113565;28;20031;-68
2021/06/23 00:39:41;;;;;;;8.68;7.78;;;19.10;93.60;;;;;;2114051;28;20102;-66
2021/06/23 00:40:43;;;;;;;7.78;7.07;;;19.10;93.70;;;;;;2114310;28;20032;-68
2021/06/23 00:41:44;;;;;;;8.40;7.50;;;19.10;93.50;;;;;;2113478;28;20034;-68
2021/06/23 00:42:46;;;;;;;9.68;7.63;;;19.10;93.40;;;;;;2112880;28;20055;-68
2021/06/23 00:43:48;;;;;;;8.35;7.55;;;19.10;93.20;;;;;;2114152;28;20123;-68
2021/06/23 00:44:49;;;;;;;8.38;7.35;;;19.10;93.20;;;;;;2113674;28;20027;-68
2021/06/23 00:45:50;;;;;;;7.50;6.80;;;19.10;93.20;;;;;;2113329;28;20069;-68
2021/06/23 00:46:52;;;;;;;8.88;8.07;;;19.10;93.40;;;;;;2113523;28;20031;-68
2021/06/23 00:47:54;;;;;;;7.78;7.07;;;19.10;93.70;;;;;;2105154;28;20020;-68
2021/06/23 00:48:57;;;;;;;8.68;7.88;;;19.10;93.70;;;;;;2105229;28;20547;-68
2021/06/23 00:49:59;;;;;;;8.50;7.70;;;19.10;93.40;;;;;;2105003;28;20039;-68
2021/06/23 00:51:35;;;;;;;8.65;7.75;;;19.10;93.40;;;;;;2076082;28;20700;-68
2021/06/23 00:52:59;;;;;;;8.80;7.90;;;19.10;93.40;;;;;;2069247;28;20041;-68
2021/06/23 00:54:10;;;;;;;9.15;8.32;;;19.00;93.40;;;;;;2098785;28;20035;-67
2021/06/23 00:55:20;;;;;;;10.85;9.25;;;19.00;93.30;;;;;;2096810;28;20427;-68
2021/06/23 00:56:30;;;;;;;10.00;7.88;;;19.00;93.30;;;;;;2097792;28;20021;-67
2021/06/23 00:57:32;;;;;;;8.93;7.97;;;19.00;93.20;;;;;;2107615;27;20027;-67
2021/06/23 00:58:33;;;;;;;10.65;8.10;;;19.00;93.10;;;;;;2113437;28;20016;-67
2021/06/23 00:59:37;;;;;;;9.60;8.60;;;19.00;93.10;;;;;;2105290;28;20024;-68
2021/06/23 01:00:38;;;;;;;12.35;9.73;;;19.00;92.70;;;;;;2096548;28;20460;-67
2021/06/23 01:01:40;;;;;;;10.52;8.75;;;19.00;92.50;;;;;;2105252;28;20035;-67
2021/06/23 01:02:42;;;;;;;10.68;8.77;;;18.90;92.40;;;;;;2121313;27;20103;-67
2021/06/23 01:03:43;;;;;;;9.40;8.60;;;18.90;92.40;;;;;;2122374;27;20598;-67
2021/06/23 01:04:48;;;;;;;9.32;8.43;;;18.90;92.20;;;;;;2122024;27;20026;-68
2021/06/23 01:05:50;;;;;;;9.60;8.75;;;18.90;92.30;;;;;;2106639;28;20024;-69
2021/06/23 01:06:56;;;;;;;10.02;9.02;;;18.90;92.20;;;;;;2105960;28;20035;-68
2021/06/23 01:07:59;;;;;;;9.55;8.63;;;18.90;92.10;;;;;;2113006;28;20054;-69
2021/06/23 01:09:04;;;;;;;12.38;9.55;;;18.90;92.20;;;;;;2105600;28;20032;-68
2021/06/23 01:10:05;;;;;;;10.40;9.30;;;18.90;91.80;;;;;;2105051;28;20125;-69
2021/06/23 01:11:08;;;;;;;9.80;8.45;;;18.90;91.60;;;;;;2113631;27;20020;-68
2021/06/23 01:12:25;;;;;;;9.10;8.20;;;18.90;91.60;;;;;;2121577;27;20019;-68
2021/06/23 01:13:34;;;;;;;10.15;9.18;;;18.90;91.50;;;;;;2113282;28;20026;-69
2021/06/23 01:14:37;;;;;;;10.13;8.70;;;18.90;91.50;;;;;;2105677;28;20028;-68
2021/06/23 01:15:40;;;;;;;9.75;8.85;;;18.80;91.60;;;;;;2105026;28;20086;-68
2021/06/23 01:16:41;;;;;;;9.32;8.43;;;18.80;91.60;;;;;;2113411;27;20016;-68
2021/06/23 01:17:42;;;;;;;8.55;7.75;;;18.80;91.70;;;;;;2113234;28;20051;-67
2021/06/23 01:18:46;;;;;;;10.32;8.20;;;18.80;91.80;;;;;;2113167;28;20063;-68
2021/06/23 01:19:48;;;;;;;12.63;9.93;;;18.80;91.80;;;;;;2122054;27;20194;-69
2021/06/23 01:20:50;;;;;;;9.15;8.25;;;18.80;91.50;;;;;;2104687;28;20131;-68
2021/06/23 01:21:51;;;;;;;9.68;8.77;;;18.80;91.60;;;;;;2088149;28;20029;-68
2021/06/23 01:22:52;;;;;;;10.02;9.05;;;18.80;91.60;;;;;;2104804;28;20716;-68
2021/06/23 01:23:54;;;;;;;9.77;8.77;;;18.80;91.50;;;;;;2104539;28;20032;-68
2021/06/23 01:24:54;;;;;;;9.80;8.80;;;18.80;91.20;;;;;;2104215;28;20090;-68
2021/06/23 01:25:55;;;;;;;9.57;8.50;;;18.80;91.00;;;;;;2105324;28;20035;-68
2021/06/23 01:26:56;;;;;;;10.20;9.20;;;18.80;90.90;;;;;;2104617;28;20032;-68
2021/06/23 01:27:57;;;;;;;9.55;8.57;;;18.80;90.70;;;;;;2096556;28;20033;-69
2021/06/23 01:29:00;;;;;;;10.88;8.90;;;18.80;90.50;;;;;;2104857;28;20052;-69
2021/06/23 01:30:25;;;;;;;9.93;9.02;;;18.80;90.50;;;;;;2107998;28;20114;-69
2021/06/23 01:31:34;;;;;;;10.68;9.30;;;18.70;90.50;;;;;;2105914;28;20008;-68
2021/06/23 01:32:35;;;;;;;10.65;9.55;;;18.70;90.60;;;;;;2103991;28;20073;-69
2021/06/23 01:33:37;;;;;;;9.15;8.20;;;18.70;90.80;;;;;;2113567;28;20027;-68
2021/06/23 01:34:37;;;;;;;9.75;8.43;;;18.70;90.80;;;;;;2113344;28;20031;-68
2021/06/23 01:35:38;;;;;;;9.68;8.38;;;18.70;90.80;;;;;;2108170;28;20052;-68
2021/06/23 01:36:39;;;;;;;10.32;9.15;;;18.70;90.90;;;;;;2111647;28;20032;-68
2021/06/23 01:37:40;;;;;;;9.80;8.60;;;18.70;90.70;;;;;;2113475;28;20437;-71
2021/06/23 01:38:41;;;;;;;8.70;7.90;;;18.70;90.70;;;;;;2113575;28;20020;-70
2021/06/23 01:39:43;;;;;;;9.20;8.30;;;18.70;90.60;;;;;;2105003;28;20403;-69
2021/06/23 01:40:44;;;;;;;9.23;8.30;;;18.70;90.40;;;;;;2113618;28;20106;-69
2021/06/23 01:41:45;;;;;;;8.40;7.60;;;18.70;90.40;;;;;;2113673;28;20016;-69
2021/06/23 01:42:47;;;;;;;10.48;8.48;;;18.70;90.40;;;;;;2113539;28;20027;-68
2021/06/23 01:43:48;;;;;;;9.15;8.25;;;18.70;90.20;;;;;;2113997;28;20478;-70
2021/06/23 01:44:49;;;;;;;10.20;8.07;;;18.70;90.30;;;;;;2112653;28;20024;-67
2021/06/23 01:45:50;;;;;;;9.43;7.90;;;18.70;90.30;;;;;;2113092;28;20030;-68
2021/06/23 01:46:52;;;;;;;8.57;7.63;;;18.70;90.40;;;;;;2104615;28;20020;-69
2021/06/23 01:47:55;;;;;;;8.00;7.07;;;18.70;90.40;;;;;;2096203;28;20412;-67
2021/06/23 01:48:56;;;;;;;8.60;7.80;;;18.70;90.50;;;;;;2104502;28;20048;-68
2021/06/23 01:49:59;;;;;;;7.80;7.00;;;18.70;90.50;;;;;;2104419;28;20035;-68
2021/06/23 01:51:02;;;;;;;7.68;6.88;;;18.70;90.50;;;;;;2096662;28;20647;-68
2021/06/23 01:52:08;;;;;;;7.65;6.95;;;18.70;90.40;;;;;;2104165;28;20028;-68
2021/06/23 01:53:09;;;;;;;7.40;6.80;;;18.70;90.40;;;;;;2095834;28;20489;-68
2021/06/23 01:54:09;;;;;;;7.68;6.80;;;18.70;90.30;;;;;;2096195;28;20024;-67
2021/06/23 01:55:27;;;;;;;8.48;7.53;;;18.70;90.20;;;;;;2095908;28;20126;-66
2021/06/23 01:56:31;;;;;;;8.02;7.30;;;18.70;90.10;;;;;;2107010;28;20032;-66
2021/06/23 01:57:40;;;;;;;8.20;7.45;;;18.70;90.10;;;;;;2104597;28;20506;-67
2021/06/23 01:58:43;;;;;;;11.13;8.40;;;18.70;89.90;;;;;;2096907;28;20032;-67
2021/06/23 01:59:55;;;;;;;9.13;8.23;;;18.70;89.50;;;;;;2097937;28;20028;-67
2021/06/23 02:01:26;;;;;;;9.32;8.40;;;18.70;89.70;;;;;;2107130;28;20036;-67
2021/06/23 02:02:28;;;;;;;8.40;7.70;;;18.70;89.90;;;;;;2113033;28;20031;-67
2021/06/23 02:03:57;;;;;;;8.48;7.70;;;18.70;90.00;;;;;;2096190;28;20741;-67
2021/06/23 02:05:03;;;;;;;10.63;9.52;;;18.60;90.50;;;;;;2102642;28;20071;-67
2021/06/23 02:06:06;;;;;;;9.15;7.90;;;18.60;90.10;;;;;;2099611;28;20036;-66
2021/06/23 02:07:32;;;;;;;10.90;9.80;;;18.60;90.10;;;;;;2096997;28;20043;-68
2021/06/23 02:08:50;;;;;;;9.73;8.80;;;18.60;89.90;;;;;;2094130;28;20099;-68
2021/06/23 02:10:26;;;;;;;10.80;9.70;;;18.60;90.00;;;;;;2091710;28;20115;-68
2021/06/23 02:12:13;;;;;;;9.63;8.60;;;18.60;90.10;;;;;;2104333;28;20040;-67
2021/06/23 02:13:29;;;;;;;9.05;8.20;;;18.50;90.20;;;;;;2098893;28;20035;-67
2021/06/23 02:15:06;;;;;;;9.38;8.38;;;18.50;90.20;;;;;;2104321;28;20471;-67
2021/06/23 02:16:22;;;;;;;9.00;8.10;;;18.60;90.20;;;;;;2108946;28;20023;-68
2021/06/23 02:17:24;;;;;;;8.95;8.05;;;18.50;90.20;;;;;;2104617;28;20028;-68
2021/06/23 02:18:33;;;;;;;9.02;8.13;;;18.50;90.30;;;;;;2097305;28;20046;-67
2021/06/23 02:20:07;;;;;;;10.93;8.18;;;18.50;90.30;;;;;;2102703;28;20027;-67
2021/06/23 02:21:12;;;;;;;9.00;8.13;;;18.50;90.30;;;;;;2104463;28;20032;-67
2021/06/23 02:22:24;;;;;;;9.68;8.40;;;18.50;90.40;;;;;;2105049;28;20029;-67
2021/06/23 02:23:39;;;;;;;8.32;7.53;;;18.50;90.40;;;;;;2104555;28;20028;-67
2021/06/23 02:24:41;;;;;;;9.15;7.68;;;18.50;90.30;;;;;;2096608;28;20027;-68
2021/06/23 02:25:52;;;;;;;8.75;7.70;;;18.50;90.40;;;;;;2095932;28;20035;-67
2021/06/23 02:26:56;;;;;;;7.70;7.00;;;18.40;90.50;;;;;;2097461;28;20025;-66
2021/06/23 02:27:56;;;;;;;8.88;8.02;;;18.50;90.50;;;;;;2104242;28;20072;-67
2021/06/23 02:28:57;;;;;;;10.38;8.07;;;18.50;90.40;;;;;;2104210;28;20040;-68
2021/06/23 02:29:58;;;;;;;9.02;8.13;;;18.50;90.30;;;;;;2104148;28;20027;-69
2021/06/23 02:31:01;;;;;;;9.18;8.27;;;18.60;90.20;;;;;;2104374;28;20024;-68
2021/06/23 02:32:16;;;;;;;8.65;7.85;;;18.50;90.10;;;;;;2096844;28;20111;-67
2021/06/23 02:33:19;;;;;;;8.90;7.60;;;18.50;90.20;;;;;;2096727;28;20441;-67
2021/06/23 02:34:24;;;;;;;7.40;6.78;;;18.50;90.20;;;;;;2096302;28;20025;-67
2021/06/23 02:35:44;;;;;;;;;;;18.50;90.30;;;;;;2093593;28;20066;-67
2021/06/23 02:36:56;;;;;;;8.40;7.60;;;18.50;90.20;;;;;;2089304;28;19921;-66
2021/06/23 02:37:58;;;;;;;7.88;7.20;;;18.40;90.30;;;;;;2096152;28;20032;-67
2021/06/23 02:39:00;;;;;;;8.20;7.40;;;18.50;90.20;;;;;;2104156;28;20081;-67
2021/06/23 02:40:07;;;;;;;8.40;7.68;;;18.50;90.20;;;;;;2095826;28;20032;-68
2021/06/23 02:41:10;;;;;;;8.82;7.80;;;18.50;90.20;;;;;;2097248;28;20039;-68
2021/06/23 02:42:12;;;;;;;9.88;8.88;;;18.50;90.10;;;;;;2095568;28;20024;-67
2021/06/23 02:43:13;;;;;;;10.10;8.40;;;18.50;90.10;;;;;;2099085;28;20106;-68
2021/06/23 02:44:16;;;;;;;8.57;7.78;;;18.50;90.10;;;;;;2104192;28;20024;-69
2021/06/23 02:45:17;;;;;;;7.93;7.20;;;18.50;90.20;;;;;;2096018;28;20024;-68
2021/06/23 02:46:19;;;;;;;8.27;7.35;;;18.50;90.20;;;;;;2104468;28;20037;-68
2021/06/23 02:47:21;;;;;;;9.50;8.27;;;18.50;90.20;;;;;;2105042;28;20124;-68
2021/06/23 02:48:44;;;;;;;9.85;8.85;;;18.50;90.10;;;;;;2103912;28;20056;-67
2021/06/23 02:49:50;;;;;;;9.35;8.45;;;18.50;90.00;;;;;;2099596;28;20390;-68
2021/06/23 02:51:05;;;;;;;8.55;7.72;;;18.40;90.20;;;;;;2088054;28;20021;-69
2021/06/23 02:52:10;;;;;;;10.27;9.20;;;18.40;90.20;;;;;;2097877;28;20036;-67
2021/06/23 02:53:12;;;;;;;8.77;7.97;;;18.40;90.20;;;;;;2104880;28;20085;-69
2021/06/23 02:54:16;;;;;;;7.85;7.15;;;18.40;90.20;;;;;;2104048;28;20225;-68
2021/06/23 02:55:49;;;;;;;8.65;7.80;;;18.50;90.30;;;;;;2093752;28;20032;-68
2021/06/23 02:56:51;;;;;;;8.32;7.50;;;18.40;90.30;;;;;;2101375;28;20024;-67
2021/06/23 02:57:53;;;;;;;8.20;7.40;;;18.40;90.40;;;;;;2097379;28;20025;-67
2021/06/23 02:58:55;;;;;;;7.40;6.70;;;18.40;90.40;;;;;;2089327;28;20028;-68
2021/06/23 02:59:57;;;;;;;10.05;8.20;;;18.40;90.40;;;;;;2097563;28;20107;-67
2021/06/23 03:00:59;;;;;;;8.88;8.07;;;18.50;90.40;;;;;;2097051;28;20043;-68
2021/06/23 03:02:09;;;;;;;9.32;8.40;;;18.50;90.40;;;;;;2097536;28;20036;-68
2021/06/23 03:03:10;;;;;;;8.75;7.68;;;18.50;90.60;;;;;;2096546;28;20032;-67
2021/06/23 03:04:11;;;;;;;9.35;8.35;;;18.50;90.20;;;;;;2104531;28;20032;-68
2021/06/23 03:05:27;;;;;;;8.90;8.00;;;18.50;90.30;;;;;;2101440;28;20031;-69
2021/06/23 03:06:28;;;;;;;9.00;8.10;;;18.50;90.20;;;;;;2100950;28;20051;-68
2021/06/23 03:07:32;;;;;;;8.50;7.63;;;18.50;90.30;;;;;;2104954;28;20025;-68
2021/06/23 03:08:40;;;;;;;8.32;7.32;;;18.50;90.30;;;;;;2104499;28;20089;-69
2021/06/23 03:09:46;;;;;;;8.07;7.28;;;18.50;90.20;;;;;;2096056;28;20028;-68
2021/06/23 03:11:06;;;;;;;7.93;7.13;;;18.50;90.30;;;;;;2107116;28;20020;-68
2021/06/23 03:12:17;;;;;;;7.80;7.00;;;18.50;90.30;;;;;;2103525;28;20048;-68
2021/06/23 03:13:50;;;;;;;8.38;7.40;;;18.50;90.50;;;;;;2108713;28;20024;-67
2021/06/23 03:15:00;;;;;;;8.85;7.45;;;18.50;90.70;;;;;;2096264;28;20707;-68
2021/06/23 03:16:01;;;;;;;8.07;7.28;;;18.50;90.90;;;;;;2104191;28;20150;-68
2021/06/23 03:17:14;;;;;;;8.93;8.02;;;18.50;91.00;;;;;;2104220;28;20095;-68
2021/06/23 03:18:14;;;;;;;10.93;8.40;;;18.50;91.30;;;;;;2097036;28;20028;-68
2021/06/23 03:19:16;;;;;;;9.80;8.80;;;18.50;91.30;;;;;;2104065;28;20079;-68
2021/06/23 03:20:18;;;;;;;11.02;9.20;;;18.50;91.40;;;;;;2104671;28;20558;-68
2021/06/23 03:21:19;;;;;;;13.48;9.15;;;18.40;91.20;;;;;;2105164;28;20051;-69
2021/06/23 03:22:21;;;;;;;9.38;8.38;;;18.40;91.30;;;;;;2104208;28;20085;-67
2021/06/23 03:23:24;;;;;;;10.13;9.13;;;18.40;91.30;;;;;;2104220;28;20058;-67
2021/06/23 03:24:25;;;;;;;10.60;8.48;;;18.40;91.20;;;;;;2103735;28;20020;-67
2021/06/23 03:25:32;;;;;;;12.45;9.73;;;18.30;91.20;;;;;;2095975;28;20055;-68
2021/06/23 03:26:32;;;;;;;15.10;9.65;;;18.30;91.10;;;;;;2097098;28;20031;-67
2021/06/23 03:27:33;;;;;;;14.57;9.93;;;18.40;91.70;;;;;;2097510;28;20035;-67
2021/06/23 03:28:34;;;;;;;11.57;9.20;;;18.30;91.10;;;;;;2105606;28;20020;-69
2021/06/23 03:29:37;;;;;;;11.90;9.05;;;18.30;91.00;;;;;;2106180;28;20072;-66
2021/06/23 03:30:38;;;;;;;12.45;9.68;;;18.30;91.00;;;;;;2105701;28;20020;-68
2021/06/23 03:31:40;;;;;;;12.38;9.38;;;18.30;91.00;;;;;;2097747;28;20034;-68
2021/06/23 03:32:44;;;;;;;10.05;9.02;;;18.30;90.80;;;;;;2096736;28;20016;-68
2021/06/23 03:33:46;;;;;;;11.85;9.10;;;18.30;91.00;;;;;;2097748;28;20055;-67
2021/06/23 03:35:09;;;;;;;14.75;9.80;;;18.30;91.20;;;;;;2098515;28;20447;-68
2021/06/23 03:36:10;;;;;;;12.75;9.05;;;18.30;91.40;;;;;;2100181;28;20035;-68
2021/06/23 03:37:12;;;;;;;12.07;9.77;;;18.30;91.50;;;;;;2097411;28;20407;-69
2021/06/23 03:38:15;;;;;;;9.55;8.65;;;18.40;91.70;;;;;;2106000;28;20112;-67
2021/06/23 03:39:16;;;;;;;10.57;9.07;;;18.40;91.70;;;;;;2097197;28;20679;-68
2021/06/23 03:40:27;;;;;;;12.32;9.40;;;18.40;91.50;;;;;;2098440;28;20083;-68
2021/06/23 03:41:28;;;;;;;12.23;10.18;;;18.30;91.50;;;;;;2097475;28;20024;-68
2021/06/23 03:42:29;;;;;;;12.38;9.55;;;18.30;91.30;;;;;;2105097;28;20085;-68
2021/06/23 03:43:30;;;;;;;13.50;9.73;;;18.30;91.50;;;;;;2105936;28;20023;-69
2021/06/23 03:44:32;;;;;;;10.68;9.57;;;18.30;91.40;;;;;;2105789;28;20035;-69
2021/06/23 03:45:33;;;;;;;10.73;9.38;;;18.20;91.70;;;;;;2105560;28;20020;-68
2021/06/23 03:46:33;;;;;;;12.52;9.90;;;18.30;91.40;;;;;;2097178;28;20024;-72
2021/06/23 03:47:35;;;;;;;10.35;9.35;;;18.20;91.30;;;;;;2096929;28;20024;-68
2021/06/23 03:48:36;;;;;;;11.73;8.98;;;18.20;91.20;;;;;;2105272;28;20063;-67
2021/06/23 03:49:41;;;;;;;12.65;9.68;;;18.20;91.40;;;;;;2105348;28;20020;-67
2021/06/23 03:50:47;;;;;;;12.52;10.20;;;18.20;91.60;;;;;;2097186;28;20111;-67
2021/06/23 03:51:49;;;;;;;13.52;9.38;;;18.20;91.60;;;;;;2105458;28;20407;-67
2021/06/23 03:52:49;;;;;;;13.32;9.90;;;18.20;91.70;;;;;;2105312;28;20056;-68
2021/06/23 03:53:52;;;;;;;16.90;9.93;;;18.30;91.60;;;;;;2105327;28;20024;-67
2021/06/23 03:54:53;;;;;;;12.32;9.82;;;18.30;91.40;;;;;;2096982;28;20017;-67
2021/06/23 03:55:55;;;;;;;12.90;9.32;;;18.30;91.30;;;;;;2096987;28;20448;-68
2021/06/23 03:57:01;;;;;;;12.15;9.27;;;18.30;91.20;;;;;;2097908;28;20152;-68
2021/06/23 03:58:03;;;;;;;12.10;9.60;;;18.30;91.30;;;;;;2105736;28;20024;-69
2021/06/23 03:59:04;;;;;;;10.82;9.23;;;18.30;91.30;;;;;;2105544;28;20568;-69
2021/06/23 04:00:05;;;;;;;11.27;9.15;;;18.30;91.30;;;;;;2105351;28;20056;-69
2021/06/23 04:01:10;;;;;;;13.40;9.60;;;18.30;91.10;;;;;;2105175;28;20059;-68
2021/06/23 04:02:20;;;;;;;8.98;8.02;;;18.30;91.10;;;;;;2089716;28;20040;-68
2021/06/23 04:03:21;;;;;;;8.82;7.80;;;18.30;91.20;;;;;;2098351;28;20032;-67
2021/06/23 04:05:00;;;;;;;11.80;8.60;;;18.30;91.10;;;;;;2097779;28;20087;-68
2021/06/23 04:06:10;;;;;;;11.03;8.30;;;18.40;91.10;;;;;;2094298;28;20083;-67
2021/06/23 04:07:14;;;;;;;11.55;9.27;;;18.40;91.10;;;;;;2097236;28;20341;-68
2021/06/23 04:08:14;;;;;;;10.98;9.30;;;18.40;90.80;;;;;;2105541;28;20035;-68
2021/06/23 04:09:15;;;;;;;13.57;9.70;;;18.40;90.60;;;;;;2105038;28;20077;-68
2021/06/23 04:10:21;;;;;;;11.25;9.10;;;18.40;90.50;;;;;;2105326;28;20100;-68
2021/06/23 04:11:22;;;;;;;9.20;8.20;;;18.30;90.60;;;;;;2105041;28;20058;-68
2021/06/23 04:12:23;;;;;;;10.98;8.95;;;18.40;90.70;;;;;;2104826;28;20119;-69
2021/06/23 04:13:26;;;;;;;10.13;8.55;;;18.40;90.70;;;;;;2106370;28;20016;-68
2021/06/23 04:14:28;;;;;;;11.20;8.90;;;18.40;90.50;;;;;;2104930;28;20028;-68
2021/06/23 04:15:29;;;;;;;10.02;8.98;;;18.40;90.30;;;;;;2105407;28;20153;-68
2021/06/23 04:16:32;;;;;;;9.25;8.35;;;18.40;90.40;;;;;;2105136;28;20028;-68
2021/06/23 04:17:34;;;;;;;10.10;9.00;;;18.40;90.40;;;;;;2105328;28;20066;-68
2021/06/23 04:18:34;;;;;;;9.45;8.45;;;18.50;90.40;;;;;;2097030;28;20024;-68
2021/06/23 04:19:36;;;;;;;11.13;8.00;;;18.50;90.50;;;;;;2096921;28;20028;-69
2021/06/23 04:20:40;;;;;;;10.00;7.90;;;18.50;90.60;;;;;;2097221;28;20482;-69
2021/06/23 04:21:48;;;;;;;11.48;8.70;;;18.50;90.70;;;;;;2105392;28;20368;-69
2021/06/23 04:22:50;;;;;;;10.05;8.30;;;18.60;90.60;;;;;;2105180;28;20135;-68
2021/06/23 04:23:52;;;;;;;10.73;8.75;;;18.50;90.60;;;;;;2088716;28;20418;-68
2021/06/23 04:24:53;;;;;;;9.68;7.90;;;18.60;90.40;;;;;;2096771;28;20029;-68
2021/06/23 04:25:54;;;;;;;9.70;8.00;;;18.60;90.50;;;;;;2098296;28;20024;-69
2021/06/23 04:26:56;;;;;;;11.32;9.70;;;18.70;90.50;;;;;;2097558;28;20115;-68
2021/06/23 04:27:57;;;;;;;14.40;10.00;;;18.70;90.50;;;;;;2088364;28;20076;-68
2021/06/23 04:28:57;;;;;;;11.32;8.88;;;18.70;90.40;;;;;;2096964;28;20044;-68
2021/06/23 04:30:03;;;;;;;9.27;8.32;;;18.80;90.50;;;;;;2105093;28;20061;-68
2021/06/23 04:31:07;;;;;;;10.27;7.90;;;18.80;90.50;;;;;;2097319;28;20029;-68
2021/06/23 04:32:07;;;;;;;12.95;9.57;;;18.80;90.50;;;;;;2096721;28;20032;-68
2021/06/23 04:33:12;;;;;;;15.25;9.93;;;18.80;90.30;;;;;;2097301;28;20032;-68
2021/06/23 04:34:15;;;;;;;10.57;9.18;;;18.80;90.10;;;;;;2097047;28;20020;-67
2021/06/23 04:35:18;;;;;;;9.15;8.25;;;18.80;90.10;;;;;;2103024;28;20092;-68
2021/06/23 04:36:19;;;;;;;8.63;7.68;;;18.80;90.20;;;;;;2101052;28;20051;-67
2021/06/23 04:37:20;;;;;;;11.38;9.75;;;18.80;90.10;;;;;;2103702;28;20020;-68
2021/06/23 04:38:22;;;;;;;10.00;8.77;;;18.80;89.70;;;;;;2105183;28;20544;-68
2021/06/23 04:39:22;;;;;;;11.02;8.73;;;18.80;90.10;;;;;;2105099;28;20038;-69
2021/06/23 04:40:36;;;;;;;10.80;8.75;;;18.80;90.20;;;;;;2089895;28;20511;-69
2021/06/23 04:41:37;;;;;;;13.02;9.48;;;18.80;90.10;;;;;;2090403;28;20040;-69
2021/06/23 04:42:39;;;;;;;14.82;10.20;;;18.80;90.00;;;;;;2096507;28;20031;-68
2021/06/23 04:43:43;;;;;;;11.15;9.20;;;18.80;90.00;;;;;;2105306;28;20130;-69
2021/06/23 04:44:46;;;;;;;12.10;10.02;;;18.80;89.80;;;;;;2105036;28;20103;-67
2021/06/23 04:45:48;;;;;;;10.88;9.30;;;18.80;90.10;;;;;;2104970;28;20116;-68
2021/06/23 04:46:49;;;;;;;11.32;8.80;;;18.80;90.00;;;;;;2105004;28;20028;-68
2021/06/23 04:47:50;;;;;;;9.40;8.30;;;18.70;90.10;;;;;;2104730;28;20823;-67
2021/06/23 04:48:51;;;;;;;14.63;9.27;;;18.70;90.20;;;;;;2104801;28;20055;-69
2021/06/23 04:50:08;;;;;;;12.50;10.02;;;18.70;90.20;;;;;;2096890;28;20017;-68
2021/06/23 04:51:29;;;;;;;15.88;10.20;;;18.70;90.40;;;;;;2096827;28;20922;-68
2021/06/23 04:52:30;;;;;;;11.98;10.27;;;18.80;90.40;;;;;;2104716;28;20030;-68
2021/06/23 04:53:31;;;;;;;12.70;9.00;;;18.70;90.20;;;;;;2104679;28;20026;-67
2021/06/23 04:54:33;;;;;;;10.13;8.45;;;18.70;90.30;;;;;;2096471;28;20035;-68
2021/06/23 04:55:34;;;;;;;10.07;9.07;;;18.80;90.30;;;;;;2096751;28;20012;-68
2021/06/23 04:56:39;;;;;;;16.98;10.65;;;18.70;89.90;;;;;;2097390;28;20507;-67
2021/06/23 04:57:40;;;;;;;15.30;10.05;;;18.70;89.50;;;;;;2105169;28;20024;-67
2021/06/23 04:58:40;;;;;;;15.57;9.68;;;18.70;89.50;;;;;;2104580;28;20126;-68
2021/06/23 04:59:47;;;;;;;14.90;9.60;;;18.60;90.00;;;;;;2097139;28;20115;-67
2021/06/23 05:00:51;;;;;;;11.90;9.02;;;18.60;90.00;;;;;;2097165;28;20029;-68
2021/06/23 05:02:08;;;;;;;10.38;8.80;;;18.70;90.00;;;;;;2104966;28;20066;-69
2021/06/23 05:03:09;;;;;;;10.70;8.35;;;18.70;90.10;;;;;;2094661;28;20064;-68
2021/06/23 05:04:10;;;;;;;11.00;8.25;;;18.70;90.10;;;;;;2097521;28;20103;-68
2021/06/23 05:05:11;;;;;;;10.43;8.75;;;18.70;89.90;;;;;;2103579;28;20570;-68
2021/06/23 05:06:14;;;;;;;10.88;8.68;;;18.70;89.70;;;;;;2099963;28;20109;-68
2021/06/23 05:07:15;;;;;;;10.05;9.05;;;18.70;89.90;;;;;;2105670;28;20028;-69
2021/06/23 05:08:16;;;;;;;14.07;9.73;;;18.70;90.00;;;;;;2105081;28;20606;-68
2021/06/23 05:09:17;;;;;;;10.27;9.05;;;18.70;89.70;;;;;;2104347;28;20089;-68
2021/06/23 05:10:17;;;;;;;11.82;9.40;;;18.70;90.00;;;;;;2105041;28;20031;-68
2021/06/23 05:11:18;;;;;;;11.98;9.23;;;18.60;89.80;;;;;;2105067;28;20593;-68
2021/06/23 05:12:19;;;;;;;13.45;8.93;;;18.70;90.00;;;;;;2113598;28;20012;-68
2021/06/23 05:13:20;;;;;;;9.95;8.63;;;18.70;90.00;;;;;;2113891;28;20032;-68
2021/06/23 05:14:20;;;;;;;11.93;8.23;;;18.70;90.00;;;;;;2113360;28;20027;-69
2021/06/23 05:15:21;;;;;;;11.18;8.63;;;18.70;90.00;;;;;;2113880;28;20458;-68
2021/06/23 05:16:22;;;;;;;11.70;8.95;;;18.70;90.00;;;;;;2104939;28;20118;-68
2021/06/23 05:17:23;;;;;;;9.95;8.48;;;18.70;89.70;;;;;;2104609;28;20514;-68
2021/06/23 05:18:24;;;;;;;9.15;8.25;;;18.70;89.70;;;;;;2113964;28;20084;-69
2021/06/23 05:19:25;;;;;;;11.00;9.63;;;18.70;89.80;;;;;;2113726;28;20031;-68
2021/06/23 05:20:25;;;;;;;10.40;9.35;;;18.60;89.60;;;;;;2104795;28;20086;-68
2021/06/23 05:21:26;;;;;;;11.90;9.23;;;18.60;90.00;;;;;;2104927;28;20100;-67
2021/06/23 05:22:27;;;;;;;9.38;8.00;;;18.60;90.00;;;;;;2113412;28;20032;-68
2021/06/23 05:23:28;;;;;;;12.30;8.68;;;18.60;90.20;;;;;;2104897;28;20043;-69
2021/06/23 05:24:28;;;;;;;15.25;9.60;;;18.60;90.20;;;;;;2096226;28;20020;-68
2021/06/23 05:25:29;;;;;;;11.48;9.30;;;18.60;90.10;;;;;;2104787;28;20504;-67
2021/06/23 05:26:30;;;;;;;11.00;8.82;;;18.60;90.20;;;;;;2114107;28;20394;-67
2021/06/23 05:27:30;;;;;;;11.68;9.68;;;18.60;90.10;;;;;;2113959;28;20059;-69
2021/06/23 05:28:31;;;;;;;12.50;10.02;;;18.60;89.80;;;;;;2104378;28;20027;-68
2021/06/23 05:29:32;;;;;;;9.60;8.60;;;18.60;89.70;;;;;;2104500;28;20047;-67
2021/06/23 05:30:32;;;;;;;9.85;8.43;;;18.60;89.80;;;;;;2104457;28;20022;-68
2021/06/23 05:31:33;;;;;;;11.57;9.38;;;18.60;90.10;;;;;;2096492;28;20025;-67
2021/06/23 05:32:34;;;;;;;9.27;8.30;;;18.60;90.30;;;;;;2104377;28;20047;-68
2021/06/23 05:33:34;;;;;;;13.40;9.40;;;18.60;90.30;;;;;;2104878;28;20043;-67